sensor_id;sensor_type;location;lat;lon;timestamp;pressure;altitude;pressure_sealevel;temperature;humidity
7052;BME280;3567;52.444;13.556;2023-03-26T00:02:05;99848.03;;;7.27;100.00
7052;BME280;3567;52.444;13.556;2023-03-26T00:04:30;99849.88;;;7.27;100.00
7052;BME280;3567;52.444;13.556;2023-03-26T00:06:58;99843.75;;;7.26;100.00
7052;BME280;3567;52.444;13.556;2023-03-26T00:09:23;99852.31;;;7.28;100.00
7052;BME280;3567;52.444;13.556;2023-03-26T00:11:48;99849.66;;;7.28;100.00
7052;BME280;3567;52.444;13.556;2023-03-26T00:14:14;99853.13;;;7.29;100.00
7052;BME280;3567;52.444;13.556;2023-03-26T00:16:42;99855.78;;;7.29;100.00
7052;BME280;3567;52.444;13.556;2023-03-26T00:19:09;99863.78;;;7.29;100.00
7052;BME280;3567;52.444;13.556;2023-03-26T00:21:35;99864.81;;;7.28;100.00
7052;BME280;3567;52.444;13.556;2023-03-26T00:24:07;99856.59;;;7.29;100.00
7052;BME280;3567;52.444;13.556;2023-03-26T00:26:34;99858.69;;;7.27;100.00
7052;BME280;3567;52.444;13.556;2023-03-26T00:29:02;99867.13;;;7.24;100.00
7052;BME280;3567;52.444;13.556;2023-03-26T00:31:28;99866.13;;;7.25;100.00
7052;BME280;3567;52.444;13.556;2023-03-26T00:33:53;99871.88;;;7.22;100.00
7052;BME280;3567;52.444;13.556;2023-03-26T00:36:20;99880.91;;;7.21;100.00
7052;BME280;3567;52.444;13.556;2023-03-26T00:38:46;99874.19;;;7.19;100.00
7052;BME280;3567;52.444;13.556;2023-03-26T00:41:15;99871.50;;;7.19;100.00
7052;BME280;3567;52.444;13.556;2023-03-26T00:43:43;99876.03;;;7.18;100.00
7052;BME280;3567;52.444;13.556;2023-03-26T00:46:11;99870.25;;;7.21;100.00
7052;BME280;3567;52.444;13.556;2023-03-26T00:48:36;99873.28;;;7.25;100.00
7052;BME280;3567;52.444;13.556;2023-03-26T00:51:04;99870.41;;;7.26;100.00
7052;BME280;3567;52.444;13.556;2023-03-26T00:53:30;99866.91;;;7.26;100.00
7052;BME280;3567;52.444;13.556;2023-03-26T00:55:56;99870.63;;;7.25;100.00
7052;BME280;3567;52.444;13.556;2023-03-26T00:58:25;99869.34;;;7.27;100.00
7052;BME280;3567;52.444;13.556;2023-03-26T01:00:56;99865.63;;;7.28;100.00
7052;BME280;3567;52.444;13.556;2023-03-26T01:03:23;99869.72;;;7.31;100.00
7052;BME280;3567;52.444;13.556;2023-03-26T01:05:51;99866.81;;;7.32;100.00
7052;BME280;3567;52.444;13.556;2023-03-26T01:08:31;99867.03;;;7.31;100.00
7052;BME280;3567;52.444;13.556;2023-03-26T01:11:01;99873.63;;;7.28;100.00
7052;BME280;3567;52.444;13.556;2023-03-26T01:13:32;99885.31;;;7.27;100.00
7052;BME280;3567;52.444;13.556;2023-03-26T01:15:59;99878.00;;;7.23;100.00
7052;BME280;3567;52.444;13.556;2023-03-26T01:18:27;99888.19;;;7.14;100.00
7052;BME280;3567;52.444;13.556;2023-03-26T01:20:59;99881.94;;;7.08;100.00
7052;BME280;3567;52.444;13.556;2023-03-26T01:26:33;99877.84;;;7.06;100.00
7052;BME280;3567;52.444;13.556;2023-03-26T01:29:02;99884.47;;;7.03;100.00
7052;BME280;3567;52.444;13.556;2023-03-26T01:31:29;99895.91;;;7.04;100.00
7052;BME280;3567;52.444;13.556;2023-03-26T01:34:20;99900.44;;;7.03;100.00
7052;BME280;3567;52.444;13.556;2023-03-26T01:42:57;99895.53;;;7.00;100.00
7052;BME280;3567;52.444;13.556;2023-03-26T01:45:27;99886.16;;;6.98;100.00
7052;BME280;3567;52.444;13.556;2023-03-26T01:47:56;99881.72;;;6.92;100.00
7052;BME280;3567;52.444;13.556;2023-03-26T01:50:21;99879.53;;;6.89;100.00
7052;BME280;3567;52.444;13.556;2023-03-26T01:52:47;99892.69;;;6.83;100.00
7052;BME280;3567;52.444;13.556;2023-03-26T01:55:12;99892.56;;;6.78;100.00
7052;BME280;3567;52.444;13.556;2023-03-26T01:58:22;99913.31;;;6.70;100.00
7052;BME280;3567;52.444;13.556;2023-03-26T02:01:05;99903.59;;;6.64;100.00
7052;BME280;3567;52.444;13.556;2023-03-26T02:03:47;99892.78;;;6.59;100.00
7052;BME280;3567;52.444;13.556;2023-03-26T02:06:19;99898.78;;;6.54;100.00
7052;BME280;3567;52.444;13.556;2023-03-26T02:08:52;99903.94;;;6.49;100.00
7052;BME280;3567;52.444;13.556;2023-03-26T02:11:20;99898.28;;;6.45;100.00
7052;BME280;3567;52.444;13.556;2023-03-26T02:13:46;99889.53;;;6.38;100.00
7052;BME280;3567;52.444;13.556;2023-03-26T02:16:14;99888.97;;;6.36;100.00
7052;BME280;3567;52.444;13.556;2023-03-26T02:18:41;99891.03;;;6.34;100.00
7052;BME280;3567;52.444;13.556;2023-03-26T02:21:08;99896.34;;;6.34;100.00
7052;BME280;3567;52.444;13.556;2023-03-26T02:23:35;99887.53;;;6.34;100.00
7052;BME280;3567;52.444;13.556;2023-03-26T02:26:09;99881.63;;;6.32;100.00
7052;BME280;3567;52.444;13.556;2023-03-26T02:28:35;99890.19;;;6.34;100.00
7052;BME280;3567;52.444;13.556;2023-03-26T02:31:01;99893.31;;;6.30;100.00
7052;BME280;3567;52.444;13.556;2023-03-26T02:33:30;99897.03;;;6.29;100.00
7052;BME280;3567;52.444;13.556;2023-03-26T02:35:57;99898.06;;;6.28;100.00
7052;BME280;3567;52.444;13.556;2023-03-26T02:38:26;99891.53;;;6.24;100.00
7052;BME280;3567;52.444;13.556;2023-03-26T02:40:53;99889.09;;;6.23;100.00
7052;BME280;3567;52.444;13.556;2023-03-26T02:43:18;99893.59;;;6.22;100.00
7052;BME280;3567;52.444;13.556;2023-03-26T02:45:44;99887.69;;;6.20;100.00
7052;BME280;3567;52.444;13.556;2023-03-26T02:48:11;99897.75;;;6.18;100.00
7052;BME280;3567;52.444;13.556;2023-03-26T02:50:36;99898.75;;;6.17;100.00
7052;BME280;3567;52.444;13.556;2023-03-26T02:53:02;99896.09;;;6.17;100.00
7052;BME280;3567;52.444;13.556;2023-03-26T02:55:27;99895.28;;;6.17;100.00
7052;BME280;3567;52.444;13.556;2023-03-26T02:57:52;99901.22;;;6.19;100.00
7052;BME280;3567;52.444;13.556;2023-03-26T03:00:18;99901.41;;;6.17;100.00
7052;BME280;3567;52.444;13.556;2023-03-26T03:02:49;99899.81;;;6.16;100.00
7052;BME280;3567;52.444;13.556;2023-03-26T03:05:15;99902.47;;;6.16;100.00
7052;BME280;3567;52.444;13.556;2023-03-26T03:07:42;99900.41;;;6.18;100.00
7052;BME280;3567;52.444;13.556;2023-03-26T03:10:11;99902.84;;;6.20;100.00
7052;BME280;3567;52.444;13.556;2023-03-26T03:12:40;99907.69;;;6.23;100.00
7052;BME280;3567;52.444;13.556;2023-03-26T03:15:06;99911.19;;;6.23;100.00
7052;BME280;3567;52.444;13.556;2023-03-26T03:17:32;99907.03;;;6.27;100.00
7052;BME280;3567;52.444;13.556;2023-03-26T03:19:57;99915.84;;;6.28;100.00
7052;BME280;3567;52.444;13.556;2023-03-26T03:22:23;99916.22;;;6.32;100.00
7052;BME280;3567;52.444;13.556;2023-03-26T03:24:48;99912.66;;;6.38;100.00
7052;BME280;3567;52.444;13.556;2023-03-26T03:27:16;99913.84;;;6.42;100.00
7052;BME280;3567;52.444;13.556;2023-03-26T03:29:43;99917.09;;;6.44;100.00
7052;BME280;3567;52.444;13.556;2023-03-26T03:32:09;99917.09;;;6.44;100.00
7052;BME280;3567;52.444;13.556;2023-03-26T03:34:34;99915.19;;;6.51;100.00
7052;BME280;3567;52.444;13.556;2023-03-26T03:37:03;99916.34;;;6.55;100.00
7052;BME280;3567;52.444;13.556;2023-03-26T03:39:28;99926.00;;;6.56;100.00
7052;BME280;3567;52.444;13.556;2023-03-26T03:41:54;99920.22;;;6.59;100.00
7052;BME280;3567;52.444;13.556;2023-03-26T03:44:19;99913.84;;;6.60;100.00
7052;BME280;3567;52.444;13.556;2023-03-26T03:46:45;99930.41;;;6.62;100.00
7052;BME280;3567;52.444;13.556;2023-03-26T03:49:13;99930.56;;;6.67;100.00
7052;BME280;3567;52.444;13.556;2023-03-26T03:51:38;99927.09;;;6.67;100.00
7052;BME280;3567;52.444;13.556;2023-03-26T03:54:03;99923.63;;;6.66;100.00
7052;BME280;3567;52.444;13.556;2023-03-26T03:56:29;99930.56;;;6.67;100.00
7052;BME280;3567;52.444;13.556;2023-03-26T03:58:54;99929.97;;;6.65;100.00
7052;BME280;3567;52.444;13.556;2023-03-26T04:01:22;99931.38;;;6.68;100.00
7052;BME280;3567;52.444;13.556;2023-03-26T04:03:48;99930.56;;;6.67;100.00
7052;BME280;3567;52.444;13.556;2023-03-26T04:06:13;99932.78;;;6.70;100.00
7052;BME280;3567;52.444;13.556;2023-03-26T04:08:43;99930.72;;;6.72;100.00
7052;BME280;3567;52.444;13.556;2023-03-26T04:11:09;99936.84;;;6.73;100.00
7052;BME280;3567;52.444;13.556;2023-03-26T04:13:35;99936.47;;;6.69;100.00
7052;BME280;3567;52.444;13.556;2023-03-26T04:16:00;99940.31;;;6.73;100.00
7052;BME280;3567;52.444;13.556;2023-03-26T04:18:26;99938.25;;;6.75;100.00
7052;BME280;3567;52.444;13.556;2023-03-26T04:20:51;99945.19;;;6.76;100.00
7052;BME280;3567;52.444;13.556;2023-03-26T04:23:20;99949.50;;;6.77;100.00
7052;BME280;3567;52.444;13.556;2023-03-26T04:25:49;99947.84;;;6.76;100.00
7052;BME280;3567;52.444;13.556;2023-03-26T04:29:10;99937.81;;;6.78;100.00
7052;BME280;3567;52.444;13.556;2023-03-26T04:31:29;99943.56;;;6.75;100.00
7052;BME280;3567;52.444;13.556;2023-03-26T04:34:21;99945.06;;;6.71;100.00
7052;BME280;3567;52.444;13.556;2023-03-26T04:36:51;99941.94;;;6.74;100.00
7052;BME280;3567;52.444;13.556;2023-03-26T04:39:19;99943.78;;;6.74;100.00
7052;BME280;3567;52.444;13.556;2023-03-26T04:41:53;99938.91;;;6.71;100.00
7052;BME280;3567;52.444;13.556;2023-03-26T04:44:18;99940.97;;;6.69;100.00
7052;BME280;3567;52.444;13.556;2023-03-26T04:46:49;99941.41;;;6.66;100.00
7052;BME280;3567;52.444;13.556;2023-03-26T04:49:17;99941.31;;;6.61;100.00
7052;BME280;3567;52.444;13.556;2023-03-26T04:51:42;99950.09;;;6.61;100.00
7052;BME280;3567;52.444;13.556;2023-03-26T04:54:11;99949.63;;;6.64;100.00
7052;BME280;3567;52.444;13.556;2023-03-26T04:56:51;99946.38;;;6.62;100.00
7052;BME280;3567;52.444;13.556;2023-03-26T04:59:24;99942.69;;;6.63;100.00
7052;BME280;3567;52.444;13.556;2023-03-26T05:01:54;99937.38;;;6.63;100.00
7052;BME280;3567;52.444;13.556;2023-03-26T05:04:21;99944.78;;;6.61;100.00
7052;BME280;3567;52.444;13.556;2023-03-26T05:06:46;99942.78;;;6.56;100.00
7052;BME280;3567;52.444;13.556;2023-03-26T05:09:11;99943.59;;;6.57;100.00
7052;BME280;3567;52.444;13.556;2023-03-26T05:11:38;99940.31;;;6.55;100.00
7052;BME280;3567;52.444;13.556;2023-03-26T05:14:04;99939.31;;;6.56;100.00
7052;BME280;3567;52.444;13.556;2023-03-26T05:16:29;99944.00;;;6.54;100.00
7052;BME280;3567;52.444;13.556;2023-03-26T05:18:55;99937.44;;;6.56;100.00
7052;BME280;3567;52.444;13.556;2023-03-26T05:21:21;99934.78;;;6.56;100.00
7052;BME280;3567;52.444;13.556;2023-03-26T05:23:46;99936.19;;;6.59;100.00
7052;BME280;3567;52.444;13.556;2023-03-26T05:26:12;99939.44;;;6.61;100.00
7052;BME280;3567;52.444;13.556;2023-03-26T05:28:37;99935.75;;;6.62;100.00
7052;BME280;3567;52.444;13.556;2023-03-26T05:31:03;99944.06;;;6.66;100.00
7052;BME280;3567;52.444;13.556;2023-03-26T05:33:28;99941.22;;;6.67;100.00
7052;BME280;3567;52.444;13.556;2023-03-26T05:36:05;99941.78;;;6.69;100.00
7052;BME280;3567;52.444;13.556;2023-03-26T05:38:31;99951.53;;;6.75;100.00
7052;BME280;3567;52.444;13.556;2023-03-26T05:41:02;99947.41;;;6.79;100.00
7052;BME280;3567;52.444;13.556;2023-03-26T05:43:29;99950.66;;;6.81;100.00
7052;BME280;3567;52.444;13.556;2023-03-26T05:45:55;99951.25;;;6.83;100.00
7052;BME280;3567;52.444;13.556;2023-03-26T05:48:21;99952.88;;;6.85;100.00
7052;BME280;3567;52.444;13.556;2023-03-26T05:50:51;99956.13;;;6.87;100.00
7052;BME280;3567;52.444;13.556;2023-03-26T05:53:17;99954.66;;;6.91;100.00
7052;BME280;3567;52.444;13.556;2023-03-26T05:55:47;99953.16;;;6.95;100.00
7052;BME280;3567;52.444;13.556;2023-03-26T05:58:28;99958.25;;;6.96;100.00
7052;BME280;3567;52.444;13.556;2023-03-26T06:00:57;99954.94;;;7.01;100.00
7052;BME280;3567;52.444;13.556;2023-03-26T06:03:23;99960.25;;;7.01;100.00
7052;BME280;3567;52.444;13.556;2023-03-26T06:05:49;99957.75;;;7.06;100.00
7052;BME280;3567;52.444;13.556;2023-03-26T06:08:14;99962.03;;;7.07;100.00
7052;BME280;3567;52.444;13.556;2023-03-26T06:10:40;99963.22;;;7.11;100.00
7052;BME280;3567;52.444;13.556;2023-03-26T06:13:05;99963.44;;;7.09;100.00
7052;BME280;3567;52.444;13.556;2023-03-26T06:15:31;99963.66;;;7.08;100.00
7052;BME280;3567;52.444;13.556;2023-03-26T06:17:56;99958.69;;;7.12;100.00
7052;BME280;3567;52.444;13.556;2023-03-26T06:20:21;99962.31;;;7.17;100.00
7052;BME280;3567;52.444;13.556;2023-03-26T06:22:47;99956.06;;;7.23;100.00
7052;BME280;3567;52.444;13.556;2023-03-26T06:25:12;99964.97;;;7.17;100.00
7052;BME280;3567;52.444;13.556;2023-03-26T06:27:37;99963.03;;;7.24;100.00
7052;BME280;3567;52.444;13.556;2023-03-26T06:30:03;99968.47;;;7.29;100.00
7052;BME280;3567;52.444;13.556;2023-03-26T06:32:29;99966.88;;;7.28;100.00
7052;BME280;3567;52.444;13.556;2023-03-26T06:34:54;99974.78;;;7.35;100.00
7052;BME280;3567;52.444;13.556;2023-03-26T06:37:20;99965.16;;;7.34;100.00
7052;BME280;3567;52.444;13.556;2023-03-26T06:39:45;99967.13;;;7.39;100.00
7052;BME280;3567;52.444;13.556;2023-03-26T06:42:10;99974.19;;;7.33;100.00
7052;BME280;3567;52.444;13.556;2023-03-26T06:44:36;99968.41;;;7.36;100.00
7052;BME280;3567;52.444;13.556;2023-03-26T06:47:01;99973.22;;;7.46;100.00
7052;BME280;3567;52.444;13.556;2023-03-26T06:49:26;99972.63;;;7.55;100.00
7052;BME280;3567;52.444;13.556;2023-03-26T06:51:52;99972.09;;;7.65;100.00
7052;BME280;3567;52.444;13.556;2023-03-26T06:54:17;99981.69;;;7.66;100.00
7052;BME280;3567;52.444;13.556;2023-03-26T06:56:42;99978.59;;;7.69;100.00
7052;BME280;3567;52.444;13.556;2023-03-26T06:59:09;99982.88;;;7.70;100.00
7052;BME280;3567;52.444;13.556;2023-03-26T07:01:34;99982.88;;;7.70;100.00
7052;BME280;3567;52.444;13.556;2023-03-26T07:04:00;99978.03;;;7.67;100.00
7052;BME280;3567;52.444;13.556;2023-03-26T07:06:25;99980.31;;;7.64;100.00
7052;BME280;3567;52.444;13.556;2023-03-26T07:08:51;99976.84;;;7.63;100.00
7052;BME280;3567;52.444;13.556;2023-03-26T07:11:16;99974.88;;;7.70;100.00
7052;BME280;3567;52.444;13.556;2023-03-26T07:13:43;99983.56;;;7.66;100.00
7052;BME280;3567;52.444;13.556;2023-03-26T07:16:10;99978.22;;;7.66;100.00
7052;BME280;3567;52.444;13.556;2023-03-26T07:18:35;99977.69;;;7.75;100.00
7052;BME280;3567;52.444;13.556;2023-03-26T07:21:01;99984.06;;;7.86;100.00
7052;BME280;3567;52.444;13.556;2023-03-26T07:23:26;99978.44;;;7.94;100.00
7052;BME280;3567;52.444;13.556;2023-03-26T07:25:52;99961.81;;;7.92;100.00
7052;BME280;3567;52.444;13.556;2023-03-26T07:28:38;99971.25;;;7.95;100.00
7052;BME280;3567;52.444;13.556;2023-03-26T07:31:28;99969.00;;;7.92;100.00
7052;BME280;3567;52.444;13.556;2023-03-26T07:34:10;99975.78;;;8.06;100.00
7052;BME280;3567;52.444;13.556;2023-03-26T07:36:59;99976.59;;;8.18;100.00
7052;BME280;3567;52.444;13.556;2023-03-26T07:47:32;99982.88;;;8.59;100.00
7052;BME280;3567;52.444;13.556;2023-03-26T07:49:58;99982.41;;;8.62;100.00
7052;BME280;3567;52.444;13.556;2023-03-26T07:52:25;99978.00;;;8.56;100.00
7052;BME280;3567;52.444;13.556;2023-03-26T07:54:51;99982.66;;;8.49;100.00
7052;BME280;3567;52.444;13.556;2023-03-26T08:00:32;99983.34;;;8.56;100.00
7052;BME280;3567;52.444;13.556;2023-03-26T08:11:26;99985.22;;;8.44;100.00
7052;BME280;3567;52.444;13.556;2023-03-26T08:17:21;99978.00;;;8.44;100.00
7052;BME280;3567;52.444;13.556;2023-03-26T08:22:50;99978.94;;;8.50;100.00
7052;BME280;3567;52.444;13.556;2023-03-26T08:25:27;99980.66;;;8.56;100.00
7052;BME280;3567;52.444;13.556;2023-03-26T08:30:35;99979.38;;;8.47;100.00
7052;BME280;3567;52.444;13.556;2023-03-26T08:33:18;99981.50;;;8.45;100.00
7052;BME280;3567;52.444;13.556;2023-03-26T08:35:45;99972.16;;;8.35;100.00
7052;BME280;3567;52.444;13.556;2023-03-26T08:38:12;99974.97;;;8.29;100.00
7052;BME280;3567;52.444;13.556;2023-03-26T09:17:24;99952.06;;;9.49;100.00
7052;BME280;3567;52.444;13.556;2023-03-26T09:31:05;99927.41;;;9.47;96.27
7052;BME280;3567;52.444;13.556;2023-03-26T09:33:52;99930.09;;;9.47;96.21
7052;BME280;3567;52.444;13.556;2023-03-26T09:42:07;99932.50;;;9.77;95.12
7052;BME280;3567;52.444;13.556;2023-03-26T09:53:22;99922.13;;;9.97;89.42
7052;BME280;3567;52.444;13.556;2023-03-26T10:12:35;99946.50;;;10.01;86.10
7052;BME280;3567;52.444;13.556;2023-03-26T10:15:30;99943.56;;;9.85;85.73
7052;BME280;3567;52.444;13.556;2023-03-26T10:31:25;99945.06;;;9.48;93.20
7052;BME280;3567;52.444;13.556;2023-03-26T10:35:00;99934.16;;;9.49;92.99
7052;BME280;3567;52.444;13.556;2023-03-26T10:37:14;99935.53;;;9.52;93.57
7052;BME280;3567;52.444;13.556;2023-03-26T10:42:46;99939.50;;;9.49;93.71
7052;BME280;3567;52.444;13.556;2023-03-26T10:45:30;99952.91;;;9.37;93.66
7052;BME280;3567;52.444;13.556;2023-03-26T10:48:20;99942.47;;;9.36;94.44
7052;BME280;3567;52.444;13.556;2023-03-26T10:53:30;99940.31;;;9.50;95.07
7052;BME280;3567;52.444;13.556;2023-03-26T10:56:11;99948.84;;;9.63;95.06
7052;BME280;3567;52.444;13.556;2023-03-26T10:58:40;99938.81;;;9.70;94.34
7052;BME280;3567;52.444;13.556;2023-03-26T11:01:23;99937.59;;;9.78;94.21
7052;BME280;3567;52.444;13.556;2023-03-26T11:03:54;99943.56;;;9.85;94.16
7052;BME280;3567;52.444;13.556;2023-03-26T11:06:25;99938.72;;;9.82;93.63
7052;BME280;3567;52.444;13.556;2023-03-26T11:14:28;99932.31;;;9.50;92.91
7052;BME280;3567;52.444;13.556;2023-03-26T11:19:36;99935.13;;;9.43;93.68
7052;BME280;3567;52.444;13.556;2023-03-26T11:33:16;99928.66;;;10.06;91.55
7052;BME280;3567;52.444;13.556;2023-03-26T11:35:46;99926.16;;;10.00;90.58
7052;BME280;3567;52.444;13.556;2023-03-26T11:38:32;99921.47;;;10.07;92.05
7052;BME280;3567;52.444;13.556;2023-03-26T11:41:03;99923.16;;;10.13;91.99
7052;BME280;3567;52.444;13.556;2023-03-26T11:43:34;99927.28;;;10.20;91.67
7052;BME280;3567;52.444;13.556;2023-03-26T11:46:02;99918.34;;;10.32;91.62
7052;BME280;3567;52.444;13.556;2023-03-26T11:48:39;99911.84;;;10.44;90.90
7052;BME280;3567;52.444;13.556;2023-03-26T11:51:13;99914.66;;;10.55;89.97
7052;BME280;3567;52.444;13.556;2023-03-26T11:53:39;99910.25;;;10.65;89.26
7052;BME280;3567;52.444;13.556;2023-03-26T11:56:52;99907.78;;;10.64;88.74
7052;BME280;3567;52.444;13.556;2023-03-26T11:59:05;99917.81;;;10.52;88.57
7052;BME280;3567;52.444;13.556;2023-03-26T12:04:35;99904.75;;;10.55;87.87
7052;BME280;3567;52.444;13.556;2023-03-26T12:07:11;99905.13;;;10.64;87.77
7052;BME280;3567;52.444;13.556;2023-03-26T12:09:51;99898.88;;;10.80;87.76
7052;BME280;3567;52.444;13.556;2023-03-26T12:12:17;99897.44;;;10.94;87.45
7052;BME280;3567;52.444;13.556;2023-03-26T12:14:43;99892.69;;;11.01;86.09
7052;BME280;3567;52.444;13.556;2023-03-26T12:17:30;99882.84;;;11.07;84.38
7052;BME280;3567;52.444;13.556;2023-03-26T12:19:56;99880.88;;;11.24;83.60
7052;BME280;3567;52.444;13.556;2023-03-26T12:22:36;99875.63;;;11.40;79.33
7052;BME280;3567;52.444;13.556;2023-03-26T12:25:12;99869.16;;;11.63;80.04
7052;BME280;3567;52.444;13.556;2023-03-26T12:27:57;99867.63;;;11.77;77.16
7052;BME280;3567;52.444;13.556;2023-03-26T12:33:23;99867.19;;;11.53;74.63
7052;BME280;3567;52.444;13.556;2023-03-26T12:35:53;99864.75;;;11.51;74.55
7052;BME280;3567;52.444;13.556;2023-03-26T12:43:34;99857.00;;;11.55;72.92
7052;BME280;3567;52.444;13.556;2023-03-26T12:46:00;99853.59;;;11.65;73.53
7052;BME280;3567;52.444;13.556;2023-03-26T12:48:26;99852.16;;;11.84;74.18
7052;BME280;3567;52.444;13.556;2023-03-26T12:53:45;99847.84;;;12.25;71.08
7052;BME280;3567;52.444;13.556;2023-03-26T13:06:53;99847.09;;;12.45;71.72
7052;BME280;3567;52.444;13.556;2023-03-26T13:14:57;99841.69;;;12.35;70.04
7052;BME280;3567;52.444;13.556;2023-03-26T13:17:56;99839.81;;;12.30;71.58
7052;BME280;3567;52.444;13.556;2023-03-26T13:20:32;99841.16;;;12.33;72.34
7052;BME280;3567;52.444;13.556;2023-03-26T13:25:45;99845.41;;;12.24;72.15
7052;BME280;3567;52.444;13.556;2023-03-26T13:28:27;99839.47;;;12.17;71.20
7052;BME280;3567;52.444;13.556;2023-03-26T13:36:25;99835.91;;;12.06;70.06
7052;BME280;3567;52.444;13.556;2023-03-26T13:41:49;99826.69;;;11.92;68.20
7052;BME280;3567;52.444;13.556;2023-03-26T13:44:35;99826.56;;;11.76;68.66
7052;BME280;3567;52.444;13.556;2023-03-26T13:47:15;99832.44;;;11.68;69.51
7052;BME280;3567;52.444;13.556;2023-03-26T13:49:51;99830.91;;;11.77;69.80
7052;BME280;3567;52.444;13.556;2023-03-26T13:52:42;99828.38;;;12.03;68.63
7052;BME280;3567;52.444;13.556;2023-03-26T13:57:42;99830.41;;;12.33;69.89
7052;BME280;3567;52.444;13.556;2023-03-26T14:00:16;99826.19;;;12.52;69.71
7052;BME280;3567;52.444;13.556;2023-03-26T14:02:52;99823.56;;;12.63;68.38
7052;BME280;3567;52.444;13.556;2023-03-26T14:05:23;99817.94;;;12.74;67.69
7052;BME280;3567;52.444;13.556;2023-03-26T14:10:26;99818.03;;;13.41;66.69
7052;BME280;3567;52.444;13.556;2023-03-26T14:12:59;99809.94;;;13.66;66.83
7052;BME280;3567;52.444;13.556;2023-03-26T14:15:33;99798.38;;;13.55;62.81
7052;BME280;3567;52.444;13.556;2023-03-26T14:18:35;99808.34;;;13.34;65.39
7052;BME280;3567;52.444;13.556;2023-03-26T14:34:22;99801.84;;;12.95;67.65
7052;BME280;3567;52.444;13.556;2023-03-26T14:45:36;99809.84;;;12.69;66.94
7052;BME280;3567;52.444;13.556;2023-03-26T14:53:47;99799.53;;;12.36;67.29
7052;BME280;3567;52.444;13.556;2023-03-26T15:34:33;99790.16;;;12.38;69.99
7052;BME280;3567;52.444;13.556;2023-03-26T15:37:23;99790.38;;;12.26;70.92
7052;BME280;3567;52.444;13.556;2023-03-26T15:45:36;99796.41;;;11.96;71.97
7052;BME280;3567;52.444;13.556;2023-03-26T15:50:47;99792.50;;;11.77;72.14
7052;BME280;3567;52.444;13.556;2023-03-26T15:56:03;99789.72;;;11.57;71.84
7052;BME280;3567;52.444;13.556;2023-03-26T16:18:54;99786.47;;;10.90;74.25
7052;BME280;3567;52.444;13.556;2023-03-26T16:26:45;99790.63;;;10.76;75.08
7052;BME280;3567;52.444;13.556;2023-03-26T16:29:21;99795.41;;;10.74;75.69
7052;BME280;3567;52.444;13.556;2023-03-26T16:42:52;99809.00;;;10.40;77.19
7052;BME280;3567;52.444;13.556;2023-03-26T16:48:34;99820.84;;;10.28;77.40
7052;BME280;3567;52.444;13.556;2023-03-26T16:51:13;99821.13;;;10.26;77.66
7052;BME280;3567;52.444;13.556;2023-03-26T16:53:50;99822.09;;;10.20;78.04
7052;BME280;3567;52.444;13.556;2023-03-26T17:12:36;99825.75;;;9.75;78.45
7052;BME280;3567;52.444;13.556;2023-03-26T17:15:22;99827.56;;;9.69;78.94
7052;BME280;3567;52.444;13.556;2023-03-26T17:18:19;99822.34;;;9.63;78.90
7052;BME280;3567;52.444;13.556;2023-03-26T17:20:58;99826.81;;;9.57;79.25
7052;BME280;3567;52.444;13.556;2023-03-26T17:25:55;99817.81;;;9.47;79.49
7052;BME280;3567;52.444;13.556;2023-03-26T17:28:54;99830.28;;;9.41;78.99
7052;BME280;3567;52.444;13.556;2023-03-26T17:34:39;99840.25;;;9.29;79.69
7052;BME280;3567;52.444;13.556;2023-03-26T17:42:32;99847.75;;;9.15;80.43
7052;BME280;3567;52.444;13.556;2023-03-26T17:45:08;99852.00;;;9.11;80.21
7052;BME280;3567;52.444;13.556;2023-03-26T17:47:55;99853.50;;;9.07;80.74
7052;BME280;3567;52.444;13.556;2023-03-26T17:53:23;99858.75;;;9.02;81.27
7052;BME280;3567;52.444;13.556;2023-03-26T17:55:52;99854.69;;;8.99;81.21
7052;BME280;3567;52.444;13.556;2023-03-26T17:58:29;99858.41;;;8.98;81.39
7052;BME280;3567;52.444;13.556;2023-03-26T18:03:51;99859.94;;;8.94;81.58
7052;BME280;3567;52.444;13.556;2023-03-26T18:09:03;99857.75;;;8.91;81.51
7052;BME280;3567;52.444;13.556;2023-03-26T18:14:14;99854.19;;;8.85;81.92
7052;BME280;3567;52.444;13.556;2023-03-26T18:16:50;99862.41;;;8.84;81.81
7052;BME280;3567;52.444;13.556;2023-03-26T18:19:19;99863.72;;;8.81;81.32
7052;BME280;3567;52.444;13.556;2023-03-26T18:21:58;99867.44;;;8.80;82.05
7052;BME280;3567;52.444;13.556;2023-03-26T18:24:30;99865.81;;;8.79;81.28
7052;BME280;3567;52.444;13.556;2023-03-26T18:27:05;99871.16;;;8.79;81.81
7052;BME280;3567;52.444;13.556;2023-03-26T18:29:35;99875.47;;;8.80;81.46
7052;BME280;3567;52.444;13.556;2023-03-26T18:32:02;99871.16;;;8.79;81.54
7052;BME280;3567;52.444;13.556;2023-03-26T18:34:53;99875.91;;;8.77;80.93
7052;BME280;3567;52.444;13.556;2023-03-26T18:37:31;99870.00;;;8.75;81.04
7052;BME280;3567;52.444;13.556;2023-03-26T18:40:09;99872.69;;;8.75;79.89
7052;BME280;3567;52.444;13.556;2023-03-26T18:42:37;99874.56;;;8.75;80.52
7052;BME280;3567;52.444;13.556;2023-03-26T18:45:07;99876.63;;;8.73;80.04
7052;BME280;3567;52.444;13.556;2023-03-26T18:47:33;99870.72;;;8.71;79.82
7052;BME280;3567;52.444;13.556;2023-03-26T18:50:02;99882.47;;;8.70;79.88
7052;BME280;3567;52.444;13.556;2023-03-26T18:52:30;99874.09;;;8.66;79.70
7052;BME280;3567;52.444;13.556;2023-03-26T18:54:56;99875.72;;;8.67;79.97
7052;BME280;3567;52.444;13.556;2023-03-26T18:57:25;99874.09;;;8.66;79.40
7052;BME280;3567;52.444;13.556;2023-03-26T18:59:53;99881.53;;;8.64;79.31
7052;BME280;3567;52.444;13.556;2023-03-26T19:02:20;99883.63;;;8.62;78.98
7052;BME280;3567;52.444;13.556;2023-03-26T19:04:47;99880.38;;;8.60;78.46
7052;BME280;3567;52.444;13.556;2023-03-26T19:07:16;99882.50;;;8.58;78.85
7052;BME280;3567;52.444;13.556;2023-03-26T19:09:43;99880.28;;;8.55;78.97
7052;BME280;3567;52.444;13.556;2023-03-26T19:12:20;99885.63;;;8.55;78.34
7052;BME280;3567;52.444;13.556;2023-03-26T19:15:00;99882.59;;;8.51;77.71
7052;BME280;3567;52.444;13.556;2023-03-26T19:17:31;99883.31;;;8.47;76.86
7052;BME280;3567;52.444;13.556;2023-03-26T19:19:58;99889.13;;;8.44;76.68
7052;BME280;3567;52.444;13.556;2023-03-26T19:22:25;99885.53;;;8.38;75.93
7052;BME280;3567;52.444;13.556;2023-03-26T19:24:56;99891.56;;;8.33;75.96
7052;BME280;3567;52.444;13.556;2023-03-26T19:27:23;99882.06;;;8.26;75.87
7052;BME280;3567;52.444;13.556;2023-03-26T19:29:49;99891.56;;;8.22;75.66